Time,TemperatureF,DewpointF,PressureIn,WindDirection,WindDirectionDegrees,WindSpeedMPH,WindSpeedGustMPH,Humidity,HourlyPrecipIn,Conditions,Clouds,dailyrainin,SolarRadiationWatts/m^2,SoftwareType,DateUTC
2013-10-03 00:02:00,67.5,64.4,29.82,South,183,0.0,0.0,90,0.00,FEW,FEW,0.00,0.0,WeatherDisplay:10.37,2013-10-03 05:02:00,
2013-10-03 00:07:00,67.2,64.2,29.82,South,183,0.0,0.0,90,0.00,FEW,FEW,0.00,0.0,WeatherDisplay:10.37,2013-10-03 05:07:00,
2013-10-03 00:12:00,67.3,64.3,29.81,South,183,0.0,0.0,90,0.00,FEW,FEW,0.00,0.0,WeatherDisplay:10.37,2013-10-03 05:12:00,
2013-10-03 00:17:00,67.4,64.7,29.81,South,183,0.0,0.0,91,0.00,FEW,FEW,0.00,0.0,WeatherDisplay:10.37,2013-10-03 05:17:00,
2013-10-03 00:22:00,67.1,64.4,29.81,South,183,0.0,0.0,91,0.00,FEW,FEW,0.00,0.0,WeatherDisplay:10.37,2013-10-03 05:22:00,
2013-10-03 00:27:00,66.9,64.2,29.81,South,183,0.0,0.0,91,0.00,FEW,FEW,0.00,0.0,WeatherDisplay:10.37,2013-10-03 05:27:00,
2013-10-03 00:32:00,66.7,64.3,29.81,South,183,0.0,0.0,92,0.00,FEW,FEW,0.00,0.0,WeatherDisplay:10.37,2013-10-03 05:32:00,
2013-10-03 00:37:00,67.0,64.6,29.80,South,183,0.0,0.0,92,0.00,FEW,FEW,0.00,0.0,WeatherDisplay:10.37,2013-10-03 05:37:00,
2013-10-03 00:42:00,67.0,64.6,29.80,South,183,0.0,0.0,92,0.00,FEW,FEW,0.00,0.0,WeatherDisplay:10.37,2013-10-03 05:42:00,
2013-10-03 00:47:00,66.9,64.2,29.80,South,183,0.0,0.0,91,0.00,FEW,FEW,0.00,0.0,WeatherDisplay:10.37,2013-10-03 05:47:00,
2013-10-03 00:52:00,66.8,64.4,29.80,South,183,0.0,0.0,92,0.00,FEW,FEW,0.00,0.0,WeatherDisplay:10.37,2013-10-03 05:52:00,
2013-10-03 00:57:00,66.7,64.3,29.80,South,183,0.0,0.0,92,0.00,FEW,FEW,0.00,0.0,WeatherDisplay:10.37,2013-10-03 05:57:00,
2013-10-03 01:02:00,66.7,64.3,29.80,South,183,0.0,0.0,92,0.00,FEW,FEW,0.00,0.0,WeatherDisplay:10.37,2013-10-03 06:02:00,
2013-10-03 01:07:00,66.6,64.2,29.80,South,182,0.0,0.0,92,0.00,FEW,,0.00,0.0,WeatherDisplay:10.37,2013-10-03 06:07:00,
2013-10-03 01:12:00,66.4,64.0,29.80,South,183,0.0,0.0,92,0.00,FEW,FEW,0.00,0.0,WeatherDisplay:10.37,2013-10-03 06:12:00,
2013-10-03 01:17:00,66.3,63.9,29.81,South,183,0.0,0.0,92,0.00,FEW,FEW,0.00,0.0,WeatherDisplay:10.37,2013-10-03 06:17:00,
2013-10-03 01:22:00,66.3,64.2,29.80,South,183,0.0,0.0,93,0.00,FEW,FEW,0.00,0.0,WeatherDisplay:10.37,2013-10-03 06:22:00,
2013-10-03 01:27:00,66.3,64.2,29.81,South,183,0.0,0.0,93,0.00,FEW,FEW,0.00,0.0,WeatherDisplay:10.37,2013-10-03 06:27:00,
2013-10-03 01:32:00,66.5,64.4,29.81,South,183,0.0,0.0,93,0.00,FEW,FEW,0.00,0.0,WeatherDisplay:10.37,2013-10-03 06:32:00,
2013-10-03 01:37:00,66.5,64.4,29.80,South,183,0.0,0.0,93,0.00,FEW,FEW,0.00,0.0,WeatherDisplay:10.37,2013-10-03 06:37:00,
2013-10-03 01:42:00,66.8,64.4,29.80,South,183,0.0,0.0,92,0.00,FEW,FEW,0.00,0.0,WeatherDisplay:10.37,2013-10-03 06:42:00,
2013-10-03 01:47:00,66.9,64.2,29.80,South,186,0.0,0.0,91,0.00,FEW,FEW,0.00,0.0,WeatherDisplay:10.37,2013-10-03 06:47:00,
2013-10-03 01:52:00,66.8,64.4,29.80,South,188,0.0,0.0,92,0.00,FEW,FEW,0.00,0.0,WeatherDisplay:10.37,2013-10-03 06:52:00,
2013-10-03 01:57:00,66.8,64.1,29.80,South,186,0.0,0.0,91,0.00,FEW,FEW,0.00,0.0,WeatherDisplay:10.37,2013-10-03 06:57:00,
2013-10-03 02:02:00,66.7,64.3,29.80,South,171,0.0,0.0,92,0.00,FEW,,0.00,0.0,WeatherDisplay:10.37,2013-10-03 07:02:00,
2013-10-03 02:07:00,66.8,64.4,29.80,South,171,0.0,0.0,92,0.00,FEW,FEW,0.00,0.0,WeatherDisplay:10.37,2013-10-03 07:07:00,
2013-10-03 02:12:00,66.7,64.0,29.80,South,171,0.0,0.0,91,0.00,FEW,FEW,0.00,0.0,WeatherDisplay:10.37,2013-10-03 07:12:00,
2013-10-03 02:17:00,66.8,64.4,29.80,SSW,205,0.0,2.0,92,0.00,FEW,FEW,0.00,0.0,WeatherDisplay:10.37,2013-10-03 07:17:00,
2013-10-03 02:22:00,66.9,64.5,29.80,WNW,284,0.0,0.0,92,0.00,FEW,FEW,0.00,0.0,WeatherDisplay:10.37,2013-10-03 07:22:00,
2013-10-03 02:27:00,67.2,64.5,29.80,WNW,286,0.0,0.0,91,0.00,FEW,FEW,0.00,0.0,WeatherDisplay:10.37,2013-10-03 07:27:00,
2013-10-03 02:32:00,67.4,64.7,29.80,WNW,286,0.0,0.0,91,0.00,FEW,FEW,0.00,0.0,WeatherDisplay:10.37,2013-10-03 07:32:00,
2013-10-03 02:37:00,67.3,64.6,29.80,WNW,286,0.0,0.0,91,0.00,FEW,,0.00,0.0,WeatherDisplay:10.37,2013-10-03 07:37:00,
2013-10-03 02:42:00,67.2,64.5,29.80,WNW,286,0.0,0.0,91,0.00,FEW,FEW,0.00,0.0,WeatherDisplay:10.37,2013-10-03 07:42:00,
2013-10-03 02:47:00,66.9,64.2,29.80,WNW,286,0.0,0.0,91,0.00,FEW,FEW,0.00,0.0,WeatherDisplay:10.37,2013-10-03 07:47:00,
2013-10-03 02:52:00,66.7,64.0,29.80,WNW,286,0.0,0.0,91,0.00,FEW,FEW,0.00,0.0,WeatherDisplay:10.37,2013-10-03 07:52:00,
2013-10-03 02:57:00,66.6,64.2,29.80,West,281,0.0,2.0,92,0.00,FEW,FEW,0.00,0.0,WeatherDisplay:10.37,2013-10-03 07:57:00,
2013-10-03 03:02:00,66.6,64.2,29.79,SSW,213,0.0,0.0,92,0.00,FEW,FEW,0.00,0.0,WeatherDisplay:10.37,2013-10-03 08:02:00,
2013-10-03 03:07:00,66.2,63.8,29.79,SSE,159,0.0,0.0,92,0.00,FEW,FEW,0.00,0.0,WeatherDisplay:10.37,2013-10-03 08:07:00,
2013-10-03 03:12:00,66.1,64.0,29.78,SSE,156,0.0,0.0,93,0.00,FEW,FEW,0.00,0.0,WeatherDisplay:10.37,2013-10-03 08:12:00,
2013-10-03 03:17:00,66.3,64.2,29.78,SSE,155,0.0,0.0,93,0.00,FEW,FEW,0.00,0.0,WeatherDisplay:10.37,2013-10-03 08:17:00,
2013-10-03 03:22:00,66.4,64.0,29.78,SSE,155,0.0,0.0,92,0.00,FEW,FEW,0.00,0.0,WeatherDisplay:10.37,2013-10-03 08:22:00,
2013-10-03 03:27:00,66.3,63.9,29.78,SSE,155,0.0,0.0,92,0.00,FEW,,0.00,0.0,WeatherDisplay:10.37,2013-10-03 08:27:00,
2013-10-03 03:32:00,66.1,64.0,29.78,SSE,155,0.0,0.0,93,0.00,FEW,,0.00,0.0,WeatherDisplay:10.37,2013-10-03 08:32:00,
2013-10-03 03:37:00,65.8,63.7,29.78,SSE,155,0.0,0.0,93,0.00,FEW,,0.00,0.0,WeatherDisplay:10.37,2013-10-03 08:37:00,
2013-10-03 03:42:00,65.8,64.0,29.78,SSE,155,0.0,0.0,94,0.00,FEW,,0.00,0.0,WeatherDisplay:10.37,2013-10-03 08:42:00,
2013-10-03 03:48:00,65.6,63.8,29.78,SSE,155,0.0,0.0,94,0.00,FEW,,0.00,0.0,WeatherDisplay:10.37,2013-10-03 08:48:00,
2013-10-03 03:53:00,65.5,63.7,29.78,SSE,155,0.0,0.0,94,0.00,FEW,,0.00,0.0,WeatherDisplay:10.37,2013-10-03 08:53:00,
2013-10-03 03:58:00,65.7,63.9,29.78,SSE,155,0.0,0.0,94,0.00,FEW,,0.00,0.0,WeatherDisplay:10.37,2013-10-03 08:58:00,
2013-10-03 04:03:00,65.9,64.1,29.78,SSE,155,0.0,0.0,94,0.00,FEW,,0.00,0.0,WeatherDisplay:10.37,2013-10-03 09:03:00,
2013-10-03 04:09:00,66.0,64.2,29.78,SSE,155,0.0,0.0,94,0.00,SCT,,0.00,0.0,WeatherDisplay:10.37,2013-10-03 09:09:00,
2013-10-03 04:14:00,66.1,64.3,29.78,SSE,155,0.0,0.0,94,0.00,SCT,,0.00,0.0,WeatherDisplay:10.37,2013-10-03 09:14:00,
2013-10-03 04:19:00,66.0,64.2,29.78,SSE,161,0.3,0.0,94,0.00,SCT,,0.00,0.0,WeatherDisplay:10.37,2013-10-03 09:19:00,
2013-10-03 04:24:00,66.1,64.3,29.78,SSE,161,0.0,0.0,94,0.00,SCT,,0.00,0.0,WeatherDisplay:10.37,2013-10-03 09:24:00,
2013-10-03 04:30:00,66.1,64.3,29.78,SSW,193,0.0,0.0,94,0.00,SCT,,0.00,0.0,WeatherDisplay:10.37,2013-10-03 09:30:00,
2013-10-03 04:35:00,66.0,63.9,29.77,SSW,193,0.0,0.0,93,0.00,SCT,,0.00,0.0,WeatherDisplay:10.37,2013-10-03 09:35:00,
2013-10-03 04:40:00,65.9,64.1,29.77,SSW,193,0.0,0.0,94,0.00,SCT,,0.00,0.0,WeatherDisplay:10.37,2013-10-03 09:40:00,
2013-10-03 04:45:00,65.9,64.1,29.77,SSW,193,0.0,0.0,94,0.00,SCT,,0.00,0.0,WeatherDisplay:10.37,2013-10-03 09:45:00,
2013-10-03 04:51:00,66.1,64.3,29.77,South,173,0.0,5.0,94,0.00,SCT,,0.00,0.0,WeatherDisplay:10.37,2013-10-03 09:51:00,
2013-10-03 04:56:00,66.4,64.6,29.77,South,178,0.0,0.0,94,0.00,SCT,,0.00,0.0,WeatherDisplay:10.37,2013-10-03 09:56:00,
2013-10-03 05:01:00,66.4,64.3,29.77,South,188,1.1,5.8,93,0.00,SCT,,0.00,0.0,WeatherDisplay:10.37,2013-10-03 10:01:00,
2013-10-03 05:07:00,66.2,64.4,29.77,South,188,0.0,0.0,94,0.00,SCT,,0.00,0.0,WeatherDisplay:10.37,2013-10-03 10:07:00,
2013-10-03 05:12:00,66.1,64.3,29.76,South,188,0.0,1.0,94,0.00,SCT,SCT,0.00,0.0,WeatherDisplay:10.37,2013-10-03 10:12:00,
2013-10-03 05:17:00,66.1,64.3,29.76,South,188,0.0,0.0,94,0.00,SCT,SCT,0.00,0.0,WeatherDisplay:10.37,2013-10-03 10:17:00,
2013-10-03 05:22:00,66.0,64.2,29.76,South,188,0.0,0.0,94,0.00,SCT,SCT,0.00,0.0,WeatherDisplay:10.37,2013-10-03 10:22:00,
2013-10-03 05:27:00,66.0,64.3,29.76,South,183,0.0,1.0,94,0.00,SCT,SCT,0.00,0.0,WeatherDisplay:10.37,2013-10-03 10:27:00,
2013-10-03 05:32:00,66.0,64.2,29.76,SSE,163,0.0,0.0,94,0.00,SCT,SCT,0.00,0.0,WeatherDisplay:10.37,2013-10-03 10:32:00,
2013-10-03 05:37:00,65.9,64.1,29.76,SSE,159,0.0,0.0,94,0.00,SCT,SCT,0.00,0.0,WeatherDisplay:10.37,2013-10-03 10:37:00,
2013-10-03 05:42:00,66.0,64.2,29.76,SSE,159,0.0,0.0,94,0.00,SCT,SCT,0.00,0.0,WeatherDisplay:10.37,2013-10-03 10:42:00,
2013-10-03 05:47:00,66.0,64.2,29.76,SSE,159,0.0,0.0,94,0.00,SCT,SCT,0.00,0.0,WeatherDisplay:10.37,2013-10-03 10:47:00,
2013-10-03 05:52:00,65.8,64.0,29.76,SSE,159,0.0,0.0,94,0.00,SCT,SCT,0.00,0.0,WeatherDisplay:10.37,2013-10-03 10:52:00,
2013-10-03 05:57:00,65.9,64.1,29.77,SSE,159,0.0,0.0,94,0.00,SCT,,0.00,0.0,WeatherDisplay:10.37,2013-10-03 10:57:00,
2013-10-03 06:02:00,66.0,64.2,29.76,SSE,159,0.0,0.0,94,0.00,BKN,BKN,0.00,0.0,WeatherDisplay:10.37,2013-10-03 11:02:00,
2013-10-03 06:07:00,66.0,64.5,29.77,SSE,159,0.0,0.0,95,0.00,BKN,,0.00,0.0,WeatherDisplay:10.37,2013-10-03 11:07:00,
2013-10-03 06:12:00,65.9,64.1,29.77,SSE,159,0.0,0.0,94,0.00,BKN,,0.00,0.0,WeatherDisplay:10.37,2013-10-03 11:12:00,
2013-10-03 06:17:00,65.8,64.3,29.77,SSE,159,0.0,0.0,95,0.00,BKN,,0.00,0.0,WeatherDisplay:10.37,2013-10-03 11:17:00,
2013-10-03 06:23:00,65.8,64.3,29.77,SSE,159,0.0,0.0,95,0.00,BKN,,0.00,0.0,WeatherDisplay:10.37,2013-10-03 11:23:00,
2013-10-03 06:28:00,65.7,64.2,29.77,SSE,159,0.0,0.0,95,0.00,BKN,,0.00,0.0,WeatherDisplay:10.37,2013-10-03 11:28:00,
2013-10-03 06:33:00,65.9,64.4,29.76,SSE,159,0.0,0.0,95,0.00,BKN,,0.00,0.0,WeatherDisplay:10.37,2013-10-03 11:33:00,
2013-10-03 06:38:00,65.8,64.3,29.76,SSE,159,0.0,0.0,95,0.00,BKN,,0.00,0.0,WeatherDisplay:10.37,2013-10-03 11:38:00,
2013-10-03 06:44:00,65.8,64.3,29.77,SSE,158,0.0,0.0,95,0.00,BKN,,0.02,0.0,WeatherDisplay:10.37,2013-10-03 11:44:00,
2013-10-03 06:49:00,66.2,64.7,29.78,SSW,208,0.3,2.3,95,0.20,RA,,0.20,0.0,WeatherDisplay:10.37,2013-10-03 11:49:00,
2013-10-03 06:54:00,66.4,64.6,29.78,WSW,251,0.0,0.0,94,0.50,RA,,0.50,0.0,WeatherDisplay:10.37,2013-10-03 11:54:00,
2013-10-03 06:59:00,66.7,65.2,29.76,WSW,254,0.0,0.0,95,0.59,RA,,0.60,0.0,WeatherDisplay:10.37,2013-10-03 11:59:00,
2013-10-03 07:05:00,66.9,65.4,29.75,WSW,254,0.0,0.0,95,0.63,RA,,0.64,0.0,WeatherDisplay:10.37,2013-10-03 12:05:00,
2013-10-03 07:10:00,67.0,65.5,29.75,WSW,254,0.0,0.0,95,0.64,OVC,,0.64,0.0,WeatherDisplay:10.37,2013-10-03 12:10:00,
2013-10-03 07:15:00,67.0,65.5,29.75,WSW,254,0.0,0.0,95,0.64,OVC,,0.64,0.0,WeatherDisplay:10.37,2013-10-03 12:15:00,
2013-10-03 07:20:00,66.9,65.4,29.75,WSW,254,0.0,0.0,95,0.64,OVC,,0.64,0.0,WeatherDisplay:10.37,2013-10-03 12:20:00,
2013-10-03 07:26:00,66.8,65.3,29.76,WSW,254,0.0,0.0,95,0.64,OVC,,0.64,5.0,WeatherDisplay:10.37,2013-10-03 12:26:00,
2013-10-03 07:31:00,66.6,65.1,29.77,ESE,119,0.0,0.0,95,0.64,OVC,,0.64,9.0,WeatherDisplay:10.37,2013-10-03 12:31:00,
2013-10-03 07:36:00,66.4,64.9,29.76,ESE,119,0.0,0.0,95,0.64,OVC,,0.64,12.0,WeatherDisplay:10.37,2013-10-03 12:36:00,
2013-10-03 07:41:00,66.3,64.8,29.76,ESE,119,0.0,0.0,95,0.64,OVC,,0.64,14.0,WeatherDisplay:10.37,2013-10-03 12:41:00,
2013-10-03 07:47:00,66.3,64.8,29.76,ESE,119,0.0,0.0,95,0.55,OVC,,0.64,18.0,WeatherDisplay:10.37,2013-10-03 12:47:00,
2013-10-03 07:52:00,66.3,64.8,29.76,ESE,119,0.0,0.0,95,0.00,OVC,OVC,0.64,18.0,WeatherDisplay:10.37,2013-10-03 12:52:00,
2013-10-03 07:57:00,66.3,64.8,29.76,ESE,119,0.0,0.0,95,0.00,OVC,OVC,0.64,12.0,WeatherDisplay:10.37,2013-10-03 12:57:00,
2013-10-03 08:02:00,66.4,64.9,29.77,SSE,162,0.0,0.0,95,0.00,OVC,OVC,0.64,14.0,WeatherDisplay:10.37,2013-10-03 13:02:00,
2013-10-03 08:07:00,66.5,65.0,29.76,South,191,0.0,4.0,95,0.00,OVC,OVC,0.64,25.0,WeatherDisplay:10.37,2013-10-03 13:07:00,
2013-10-03 08:12:00,66.5,65.1,29.77,South,188,0.0,0.0,95,0.00,OVC,OVC,0.64,16.0,WeatherDisplay:10.37,2013-10-03 13:12:00,
2013-10-03 08:17:00,66.6,65.1,29.76,South,188,0.0,0.0,95,0.00,OVC,OVC,0.64,23.0,WeatherDisplay:10.37,2013-10-03 13:17:00,
2013-10-03 08:22:00,66.6,65.1,29.76,South,186,0.0,0.0,95,0.00,OVC,OVC,0.64,28.0,WeatherDisplay:10.37,2013-10-03 13:22:00,
2013-10-03 08:27:00,66.7,65.2,29.76,South,185,0.0,0.0,95,0.00,OVC,OVC,0.64,32.0,WeatherDisplay:10.37,2013-10-03 13:27:00,
2013-10-03 08:32:00,66.7,65.2,29.76,South,185,0.0,0.0,95,0.00,OVC,OVC,0.64,33.0,WeatherDisplay:10.37,2013-10-03 13:32:00,
2013-10-03 08:37:00,66.9,65.4,29.75,West,259,0.0,0.0,95,0.00,OVC,,0.64,51.0,WeatherDisplay:10.37,2013-10-03 13:37:00,
2013-10-03 08:42:00,67.0,65.5,29.75,WSW,255,0.0,0.0,95,0.00,OVC,,0.64,62.0,WeatherDisplay:10.37,2013-10-03 13:42:00,
2013-10-03 08:47:00,67.2,65.7,29.75,SSW,210,0.0,0.0,95,0.00,OVC,,0.64,69.0,WeatherDisplay:10.37,2013-10-03 13:47:00,
2013-10-03 08:52:00,67.4,65.9,29.75,SSE,162,0.0,0.0,95,0.00,OVC,,0.64,70.0,WeatherDisplay:10.37,2013-10-03 13:52:00,
2013-10-03 08:58:00,67.5,66.0,29.75,SSE,162,0.1,1.2,95,0.00,OVC,,0.64,65.0,WeatherDisplay:10.37,2013-10-03 13:58:00,
2013-10-03 09:03:00,67.6,66.1,29.76,SSE,162,0.0,0.0,95,0.00,OVC,,0.64,69.0,WeatherDisplay:10.37,2013-10-03 14:03:00,
2013-10-03 09:08:00,67.8,66.3,29.76,SSE,162,0.0,0.0,95,0.00,OVC,,0.64,56.0,WeatherDisplay:10.37,2013-10-03 14:08:00,
2013-10-03 09:13:00,67.9,66.4,29.77,SSE,162,0.0,0.0,95,0.00,OVC,,0.64,46.0,WeatherDisplay:10.37,2013-10-03 14:13:00,
2013-10-03 09:19:00,67.8,66.3,29.77,South,172,0.1,1.2,95,0.00,OVC,,0.64,79.0,WeatherDisplay:10.37,2013-10-03 14:19:00,
2013-10-03 09:24:00,68.0,66.5,29.77,South,173,0.0,0.0,95,0.00,OVC,,0.64,105.0,WeatherDisplay:10.37,2013-10-03 14:24:00,
2013-10-03 09:29:00,68.1,66.6,29.77,South,172,0.0,1.2,95,0.00,OVC,,0.64,90.0,WeatherDisplay:10.37,2013-10-03 14:29:00,
2013-10-03 09:34:00,68.3,66.8,29.77,South,172,0.0,0.0,95,0.00,OVC,,0.64,88.0,WeatherDisplay:10.37,2013-10-03 14:34:00,
2013-10-03 09:40:00,68.3,66.8,29.77,South,169,0.0,0.0,95,0.00,OVC,,0.64,137.0,WeatherDisplay:10.37,2013-10-03 14:40:00,
2013-10-03 09:45:00,68.6,67.1,29.77,South,171,0.0,2.3,95,0.00,OVC,,0.64,111.0,WeatherDisplay:10.37,2013-10-03 14:45:00,
2013-10-03 09:50:00,68.8,67.3,29.77,SE,130,0.0,0.0,95,0.00,OVC,,0.64,127.0,WeatherDisplay:10.37,2013-10-03 14:50:00,
2013-10-03 09:55:00,69.4,67.9,29.77,ENE,64,0.0,0.0,95,0.00,OVC,,0.64,116.0,WeatherDisplay:10.37,2013-10-03 14:55:00,
2013-10-03 10:01:00,69.3,67.8,29.77,SSE,165,0.0,0.0,95,0.00,OVC,,0.64,105.0,WeatherDisplay:10.37,2013-10-03 15:01:00,
2013-10-03 10:06:00,69.1,67.3,29.77,South,184,0.0,0.0,94,0.00,OVC,,0.64,121.0,WeatherDisplay:10.37,2013-10-03 15:06:00,
2013-10-03 10:11:00,69.1,67.3,29.77,South,184,0.0,0.0,94,0.00,OVC,,0.64,149.0,WeatherDisplay:10.37,2013-10-03 15:11:00,
2013-10-03 10:16:00,69.2,67.4,29.77,SSE,160,0.0,1.2,94,0.00,OVC,,0.64,167.0,WeatherDisplay:10.37,2013-10-03 15:16:00,
2013-10-03 10:22:00,69.2,67.1,29.77,SSE,158,0.0,2.0,93,0.00,OVC,OVC,0.64,171.0,WeatherDisplay:10.37,2013-10-03 15:22:00,
2013-10-03 10:27:00,69.1,67.0,29.78,SE,124,0.0,0.0,93,0.00,OVC,,0.64,156.0,WeatherDisplay:10.37,2013-10-03 15:27:00,
2013-10-03 10:32:00,69.4,67.0,29.78,SSE,157,1.0,4.6,92,0.00,OVC,,0.64,195.0,WeatherDisplay:10.37,2013-10-03 15:32:00,
2013-10-03 10:37:00,69.4,66.7,29.78,SE,137,0.1,1.2,91,0.00,OVC,,0.64,156.0,WeatherDisplay:10.37,2013-10-03 15:37:00,
2013-10-03 10:43:00,69.6,67.2,29.77,SSW,202,0.0,0.0,92,0.00,OVC,,0.64,199.0,WeatherDisplay:10.37,2013-10-03 15:43:00,
2013-10-03 10:48:00,70.2,67.4,29.77,SSW,209,0.0,0.0,91,0.00,OVC,,0.64,100.0,WeatherDisplay:10.37,2013-10-03 15:48:00,
2013-10-03 10:53:00,70.2,66.8,29.77,SSW,192,0.0,0.0,89,0.00,OVC,,0.64,211.0,WeatherDisplay:10.37,2013-10-03 15:53:00,
2013-10-03 10:58:00,70.9,67.2,29.76,SSW,192,0.0,0.0,88,0.00,OVC,,0.64,499.0,WeatherDisplay:10.37,2013-10-03 15:58:00,
2013-10-03 11:04:00,71.4,67.3,29.76,South,188,0.0,0.0,87,0.00,OVC,,0.64,621.0,WeatherDisplay:10.37,2013-10-03 16:04:00,
2013-10-03 11:09:00,71.7,66.6,29.76,West,270,0.1,3.5,84,0.00,OVC,,0.64,582.0,WeatherDisplay:10.37,2013-10-03 16:09:00,
2013-10-03 11:14:00,71.7,66.9,29.76,SSE,165,0.0,0.0,85,0.00,OVC,,0.64,554.0,WeatherDisplay:10.37,2013-10-03 16:14:00,
2013-10-03 11:19:00,71.8,66.7,29.76,SE,134,0.0,0.0,84,0.00,OVC,,0.64,561.0,WeatherDisplay:10.37,2013-10-03 16:19:00,
2013-10-03 11:25:00,71.9,65.8,29.77,SSE,165,0.0,0.0,81,0.00,OVC,,0.64,626.0,WeatherDisplay:10.37,2013-10-03 16:25:00,
2013-10-03 11:30:00,72.1,63.7,29.77,SE,126,0.3,3.0,75,0.00,OVC,,0.64,647.0,WeatherDisplay:10.37,2013-10-03 16:30:00,
2013-10-03 11:35:00,72.7,64.7,29.76,SSE,164,0.7,3.5,76,0.00,OVC,,0.64,513.0,WeatherDisplay:10.37,2013-10-03 16:35:00,
2013-10-03 11:41:00,72.8,65.2,29.76,SE,124,0.1,3.5,77,0.00,OVC,,0.64,469.0,WeatherDisplay:10.37,2013-10-03 16:41:00,
2013-10-03 11:46:00,72.4,65.5,29.76,SE,143,0.0,0.0,79,0.00,OVC,,0.64,480.0,WeatherDisplay:10.37,2013-10-03 16:46:00,
2013-10-03 11:51:00,72.5,64.9,29.76,SE,143,0.0,0.0,77,0.00,OVC,,0.64,524.0,WeatherDisplay:10.37,2013-10-03 16:51:00,
2013-10-03 11:56:00,73.1,64.3,29.75,SSE,152,0.8,3.5,74,0.00,OVC,,0.64,527.0,WeatherDisplay:10.37,2013-10-03 16:56:00,
2013-10-03 12:02:00,73.2,63.6,29.75,SE,140,0.0,1.2,72,0.00,OVC,,0.64,338.0,WeatherDisplay:10.37,2013-10-03 17:02:00,
2013-10-03 12:07:00,73.4,64.6,29.75,SE,145,0.0,1.0,74,0.00,OVC,OVC,0.64,471.0,WeatherDisplay:10.37,2013-10-03 17:07:00,
2013-10-03 12:12:00,73.9,66.9,29.74,SSE,149,0.0,0.0,79,0.00,OVC,OVC,0.64,322.0,WeatherDisplay:10.37,2013-10-03 17:12:00,
2013-10-03 12:17:00,73.5,63.9,29.74,South,172,0.0,0.0,72,0.00,OVC,,0.64,258.0,WeatherDisplay:10.37,2013-10-03 17:17:00,
2013-10-03 12:22:00,73.1,65.5,29.74,South,172,0.0,0.0,77,0.00,OVC,,0.64,285.0,WeatherDisplay:10.37,2013-10-03 17:22:00,
2013-10-03 12:27:00,73.0,63.8,29.74,SSE,166,0.0,0.0,73,0.00,OVC,,0.64,338.0,WeatherDisplay:10.37,2013-10-03 17:27:00,
2013-10-03 12:33:00,73.3,64.1,29.74,NW,313,0.0,1.2,73,0.00,OVC,,0.64,316.0,WeatherDisplay:10.37,2013-10-03 17:33:00,
2013-10-03 12:38:00,73.5,64.3,29.74,WSW,257,0.0,0.0,73,0.00,OVC,,0.64,367.0,WeatherDisplay:10.37,2013-10-03 17:38:00,
2013-10-03 12:43:00,73.8,65.0,29.74,South,177,0.0,1.0,74,0.00,OVC,,0.64,411.0,WeatherDisplay:10.37,2013-10-03 17:43:00,
2013-10-03 12:48:00,74.2,64.2,29.74,SE,140,0.0,0.0,71,0.00,OVC,,0.64,417.0,WeatherDisplay:10.37,2013-10-03 17:48:00,
2013-10-03 12:54:00,74.6,64.2,29.73,SSE,152,1.1,3.5,70,0.00,OVC,,0.64,446.0,WeatherDisplay:10.37,2013-10-03 17:54:00,
2013-10-03 12:59:00,74.5,64.9,29.73,SSW,192,0.0,0.0,72,0.00,OVC,,0.64,322.0,WeatherDisplay:10.37,2013-10-03 17:59:00,
2013-10-03 13:04:00,74.2,65.4,29.73,SSE,163,0.0,3.5,74,0.00,OVC,,0.64,302.0,WeatherDisplay:10.37,2013-10-03 18:04:00,
2013-10-03 13:09:00,74.2,64.2,29.73,ESE,105,2.2,2.2,71,0.00,OVC,,0.64,294.0,WeatherDisplay:10.37,2013-10-03 18:09:00,
2013-10-03 13:15:00,74.2,63.0,29.74,SE,142,0.2,2.3,68,0.00,OVC,,0.64,323.0,WeatherDisplay:10.37,2013-10-03 18:15:00,
2013-10-03 13:20:00,74.3,63.5,29.73,ESE,116,3.6,10.4,69,0.00,OVC,,0.64,357.0,WeatherDisplay:10.37,2013-10-03 18:20:00,
2013-10-03 13:25:00,74.3,63.1,29.73,South,174,1.2,8.0,68,0.00,OVC,,0.64,390.0,WeatherDisplay:10.37,2013-10-03 18:25:00,
2013-10-03 13:30:00,74.4,63.1,29.73,SSE,155,0.9,3.0,68,0.00,OVC,,0.64,438.0,WeatherDisplay:10.37,2013-10-03 18:30:00,
2013-10-03 13:36:00,74.8,63.5,29.73,SSW,192,0.1,1.2,68,0.00,OVC,,0.64,512.0,WeatherDisplay:10.37,2013-10-03 18:36:00,
2013-10-03 13:41:00,75.2,63.1,29.73,SSE,148,0.0,0.0,66,0.00,OVC,,0.64,541.0,WeatherDisplay:10.37,2013-10-03 18:41:00,
2013-10-03 13:46:00,75.8,63.6,29.73,South,188,2.0,6.0,66,0.00,OVC,,0.64,534.0,WeatherDisplay:10.37,2013-10-03 18:46:00,
2013-10-03 13:51:00,75.4,62.8,29.73,SSE,163,0.0,1.2,65,0.00,OVC,,0.64,332.0,WeatherDisplay:10.37,2013-10-03 18:51:00,
2013-10-03 13:57:00,74.9,63.6,29.72,SSE,167,0.0,2.0,68,0.00,OVC,OVC,0.64,580.0,WeatherDisplay:10.37,2013-10-03 18:57:00,
2013-10-03 14:02:00,75.5,64.2,29.72,SSE,153,0.0,0.0,68,0.00,OVC,,0.64,496.0,WeatherDisplay:10.37,2013-10-03 19:02:00,
2013-10-03 14:07:00,75.6,63.4,29.72,SSE,159,0.2,1.2,66,0.00,OVC,,0.64,401.0,WeatherDisplay:10.37,2013-10-03 19:07:00,
2013-10-03 14:12:00,75.2,63.9,29.72,SE,136,0.2,2.3,68,0.00,OVC,,0.64,436.0,WeatherDisplay:10.37,2013-10-03 19:12:00,
2013-10-03 14:18:00,75.3,64.4,29.71,SSE,159,0.0,0.0,69,0.00,OVC,,0.64,376.0,WeatherDisplay:10.37,2013-10-03 19:18:00,
2013-10-03 14:23:00,75.2,64.3,29.71,SSE,147,0.4,3.5,69,0.00,OVC,,0.64,480.0,WeatherDisplay:10.37,2013-10-03 19:23:00,
2013-10-03 14:28:00,75.5,63.3,29.72,NNE,22,0.0,1.0,66,0.00,OVC,,0.64,631.0,WeatherDisplay:10.37,2013-10-03 19:28:00,
2013-10-03 14:34:00,76.1,63.5,29.72,SSE,165,0.0,1.2,65,0.00,OVC,,0.64,316.0,WeatherDisplay:10.37,2013-10-03 19:34:00,
2013-10-03 14:39:00,75.8,63.2,29.72,South,188,0.0,0.0,65,0.00,OVC,,0.64,563.0,WeatherDisplay:10.37,2013-10-03 19:39:00,
2013-10-03 14:44:00,76.0,64.2,29.72,South,170,0.4,5.8,67,0.00,OVC,,0.64,396.0,WeatherDisplay:10.37,2013-10-03 19:44:00,
2013-10-03 14:49:00,75.9,63.7,29.71,ESE,119,0.0,4.6,66,0.00,OVC,,0.64,599.0,WeatherDisplay:10.37,2013-10-03 19:49:00,
2013-10-03 14:55:00,76.6,62.6,29.71,ESE,123,0.6,3.5,62,0.00,OVC,,0.64,401.0,WeatherDisplay:10.37,2013-10-03 19:55:00,
2013-10-03 15:00:00,76.6,64.0,29.72,ESE,123,0.0,0.0,65,0.00,OVC,,0.64,490.0,WeatherDisplay:10.37,2013-10-03 20:00:00,
2013-10-03 15:05:00,76.5,64.7,29.72,ESE,123,0.0,0.0,67,0.00,OVC,,0.64,401.0,WeatherDisplay:10.37,2013-10-03 20:05:00,
2013-10-03 15:10:00,76.5,64.3,29.72,NE,35,0.6,3.5,66,0.00,OVC,,0.64,615.0,WeatherDisplay:10.37,2013-10-03 20:10:00,
2013-10-03 15:16:00,76.7,64.0,29.72,NE,35,0.1,1.0,65,0.00,OVC,,0.64,364.0,WeatherDisplay:10.37,2013-10-03 20:16:00,
2013-10-03 15:21:00,76.5,64.3,29.72,SE,139,0.0,0.0,66,0.00,OVC,,0.64,236.0,WeatherDisplay:10.37,2013-10-03 20:21:00,
2013-10-03 15:26:00,76.3,63.7,29.72,ESE,115,0.0,0.0,65,0.00,OVC,,0.64,406.0,WeatherDisplay:10.37,2013-10-03 20:26:00,
2013-10-03 15:31:00,76.4,63.8,29.72,South,177,0.0,0.0,65,0.00,OVC,,0.64,141.0,WeatherDisplay:10.37,2013-10-03 20:31:00,
2013-10-03 15:37:00,75.7,62.7,29.72,South,172,0.0,1.2,64,0.00,OVC,,0.64,257.0,WeatherDisplay:10.37,2013-10-03 20:37:00,
2013-10-03 15:42:00,76.0,63.4,29.72,South,170,1.0,5.0,65,0.00,OVC,OVC,0.64,258.0,WeatherDisplay:10.37,2013-10-03 20:42:00,
2013-10-03 15:45:00,76.3,64.1,29.73,SSW,207,0.1,0.0,66,0.00,OVC,,0.64,251.0,WeatherDisplay:10.37,2013-10-03 20:45:00,
2013-10-03 15:47:00,76.3,64.1,29.73,SSW,207,0.1,0.0,66,0.00,OVC,,0.64,251.0,WeatherDisplay:10.37,2013-10-03 20:47:00,
2013-10-03 15:52:00,76.3,64.1,29.73,SSW,207,0.1,0.0,66,0.00,OVC,,0.64,251.0,WeatherDisplay:10.37,2013-10-03 20:52:00,
2013-10-03 15:57:00,76.3,64.1,29.73,South,169,0.0,4.0,66,0.00,OVC,OVC,0.64,244.0,WeatherDisplay:10.37,2013-10-03 20:57:00,
2013-10-03 16:02:00,76.4,64.2,29.73,SSE,160,0.0,2.0,66,0.00,OVC,OVC,0.64,202.0,WeatherDisplay:10.37,2013-10-03 21:02:00,
2013-10-03 16:07:00,76.1,63.9,29.73,SSE,154,0.0,4.0,66,0.00,OVC,OVC,0.64,137.0,WeatherDisplay:10.37,2013-10-03 21:07:00,
2013-10-03 16:12:00,75.7,63.5,29.73,SE,142,0.0,0.0,66,0.00,OVC,OVC,0.64,159.0,WeatherDisplay:10.37,2013-10-03 21:12:00,
2013-10-03 16:17:00,75.5,63.3,29.72,SSE,168,0.0,3.0,66,0.00,OVC,OVC,0.64,158.0,WeatherDisplay:10.37,2013-10-03 21:17:00,
2013-10-03 16:22:00,75.5,63.3,29.73,SSW,202,0.0,0.0,66,0.00,OVC,OVC,0.64,158.0,WeatherDisplay:10.37,2013-10-03 21:22:00,
2013-10-03 16:27:00,75.4,63.2,29.72,SSW,202,0.0,1.0,66,0.00,OVC,OVC,0.64,137.0,WeatherDisplay:10.37,2013-10-03 21:27:00,
2013-10-03 16:32:00,75.3,63.2,29.73,SSW,202,0.0,0.0,66,0.00,OVC,OVC,0.64,151.0,WeatherDisplay:10.37,2013-10-03 21:32:00,
2013-10-03 16:37:00,75.3,63.2,29.73,SSW,202,0.0,0.0,66,0.00,OVC,OVC,0.64,123.0,WeatherDisplay:10.37,2013-10-03 21:37:00,
2013-10-03 16:42:00,75.2,63.1,29.72,SSW,202,0.0,0.0,66,0.00,OVC,OVC,0.64,93.0,WeatherDisplay:10.37,2013-10-03 21:42:00,
2013-10-03 16:47:00,74.9,62.8,29.73,SSW,202,0.0,0.0,66,0.00,OVC,OVC,0.64,68.0,WeatherDisplay:10.37,2013-10-03 21:47:00,
2013-10-03 16:52:00,74.4,62.3,29.72,SSW,202,0.0,0.0,66,0.00,OVC,OVC,0.64,47.0,WeatherDisplay:10.37,2013-10-03 21:52:00,
2013-10-03 16:57:00,74.4,62.3,29.72,SSW,202,0.0,0.0,66,0.00,OVC,OVC,0.64,46.0,WeatherDisplay:10.37,2013-10-03 21:57:00,
2013-10-03 17:02:00,74.2,62.1,29.73,SSW,202,0.0,0.0,66,0.00,OVC,OVC,0.64,32.0,WeatherDisplay:10.37,2013-10-03 22:02:00,
2013-10-03 17:07:00,73.9,61.8,29.73,SSW,202,0.0,0.0,66,0.00,OVC,OVC,0.64,23.0,WeatherDisplay:10.37,2013-10-03 22:07:00,
2013-10-03 17:12:00,73.7,61.6,29.73,SSW,202,0.0,0.0,66,0.00,OVC,OVC,0.64,19.0,WeatherDisplay:10.37,2013-10-03 22:12:00,
2013-10-03 17:17:00,73.5,61.4,29.73,SSW,202,0.0,0.0,66,0.00,OVC,OVC,0.64,16.0,WeatherDisplay:10.37,2013-10-03 22:17:00,
2013-10-03 17:22:00,73.4,61.3,29.73,SSW,202,0.0,0.0,66,0.00,OVC,OVC,0.64,25.0,WeatherDisplay:10.37,2013-10-03 22:22:00,
2013-10-03 17:27:00,73.2,61.2,29.74,SSW,202,0.0,0.0,66,0.00,OVC,OVC,0.64,18.0,WeatherDisplay:10.37,2013-10-03 22:27:00,
2013-10-03 17:32:00,73.5,61.4,29.73,SSW,202,0.0,0.0,66,0.00,OVC,OVC,0.64,33.0,WeatherDisplay:10.37,2013-10-03 22:32:00,
2013-10-03 17:37:00,73.7,61.6,29.73,SSW,202,0.0,0.0,66,0.00,OVC,OVC,0.64,46.0,WeatherDisplay:10.37,2013-10-03 22:37:00,
2013-10-03 17:42:00,73.7,61.6,29.73,SSW,202,0.0,0.0,66,0.00,OVC,OVC,0.64,16.0,WeatherDisplay:10.37,2013-10-03 22:42:00,
2013-10-03 17:47:00,73.8,61.7,29.72,SSW,202,0.0,0.0,66,0.00,OVC,OVC,0.64,32.0,WeatherDisplay:10.37,2013-10-03 22:47:00,
2013-10-03 17:52:00,73.8,61.7,29.73,SSW,202,0.0,0.0,66,0.00,OVC,OVC,0.64,12.0,WeatherDisplay:10.37,2013-10-03 22:52:00,
2013-10-03 17:57:00,73.7,61.6,29.73,SSW,202,0.0,0.0,66,0.00,OVC,OVC,0.64,14.0,WeatherDisplay:10.37,2013-10-03 22:57:00,
2013-10-03 18:02:00,73.3,61.3,29.73,SSW,202,0.0,0.0,66,0.00,OVC,OVC,0.64,19.0,WeatherDisplay:10.37,2013-10-03 23:02:00,
2013-10-03 18:07:00,73.2,61.2,29.73,SSW,202,0.0,0.0,66,0.00,OVC,OVC,0.64,21.0,WeatherDisplay:10.37,2013-10-03 23:07:00,
2013-10-03 18:12:00,73.2,61.2,29.73,SSW,202,0.0,0.0,66,0.00,OVC,OVC,0.64,21.0,WeatherDisplay:10.37,2013-10-03 23:12:00,
2013-10-03 18:17:00,72.6,60.6,29.73,SSW,202,0.0,0.0,66,0.00,OVC,OVC,0.64,33.0,WeatherDisplay:10.37,2013-10-03 23:17:00,
2013-10-03 18:22:00,71.7,59.7,29.73,SSW,202,0.0,0.0,66,0.00,OVC,OVC,0.64,39.0,WeatherDisplay:10.37,2013-10-03 23:22:00,
2013-10-03 18:27:00,71.4,59.4,29.73,SSW,202,0.0,0.0,66,0.00,OVC,OVC,0.64,39.0,WeatherDisplay:10.37,2013-10-03 23:27:00,
2013-10-03 18:32:00,71.2,59.3,29.74,SSW,202,0.0,0.0,66,0.00,OVC,OVC,0.64,24.0,WeatherDisplay:10.37,2013-10-03 23:32:00,
2013-10-03 18:37:00,71.4,59.4,29.73,SSW,202,0.0,0.0,66,0.00,OVC,OVC,0.64,19.0,WeatherDisplay:10.37,2013-10-03 23:37:00,
2013-10-03 18:42:00,70.7,58.8,29.73,SSW,202,0.0,0.0,66,0.00,OVC,OVC,0.64,11.0,WeatherDisplay:10.37,2013-10-03 23:42:00,
2013-10-03 18:47:00,70.3,58.4,29.74,SSW,202,0.0,0.0,66,0.00,OVC,OVC,0.64,5.0,WeatherDisplay:10.37,2013-10-03 23:47:00,
2013-10-03 18:52:00,70.1,58.2,29.73,SSW,202,0.0,0.0,66,0.00,OVC,OVC,0.64,0.0,WeatherDisplay:10.37,2013-10-03 23:52:00,
2013-10-03 18:57:00,69.9,58.0,29.73,SSW,202,0.0,0.0,66,0.00,OVC,OVC,0.64,0.0,WeatherDisplay:10.37,2013-10-03 23:57:00,
2013-10-03 19:02:00,69.6,57.7,29.73,SSW,202,0.0,0.0,66,0.00,OVC,OVC,0.64,0.0,WeatherDisplay:10.37,2013-10-04 00:02:00,
2013-10-03 19:07:00,69.3,57.5,29.73,SSW,202,0.0,0.0,66,0.00,OVC,OVC,0.64,0.0,WeatherDisplay:10.37,2013-10-04 00:07:00,
2013-10-03 19:12:00,69.1,57.3,29.74,SSW,202,0.0,0.0,66,0.00,OVC,OVC,0.64,0.0,WeatherDisplay:10.37,2013-10-04 00:12:00,
2013-10-03 19:17:00,68.9,57.1,29.74,SSW,202,0.0,0.0,66,0.00,OVC,OVC,0.64,0.0,WeatherDisplay:10.37,2013-10-04 00:17:00,
2013-10-03 19:22:00,68.8,57.0,29.74,SSW,202,0.0,0.0,66,0.00,OVC,OVC,0.64,0.0,WeatherDisplay:10.37,2013-10-04 00:22:00,
2013-10-03 19:27:00,68.8,57.0,29.74,SSW,202,0.0,0.0,66,0.00,OVC,OVC,0.64,0.0,WeatherDisplay:10.37,2013-10-04 00:27:00,
2013-10-03 19:36:00,69.0,65.9,29.74,West,270,0.0,0.0,90,0.00,OVC,,0.64,0.0,WeatherDisplay:10.37,2013-10-04 00:36:00,
2013-10-03 19:41:00,68.9,65.8,29.74,West,270,0.0,0.0,90,0.00,OVC,,0.64,0.0,WeatherDisplay:10.37,2013-10-04 00:41:00,
2013-10-03 19:42:00,68.8,65.7,29.74,NNW,346,0.0,0.0,90,0.00,CLR,CLR,0.64,0.0,WeatherDisplay:10.37,2013-10-04 00:42:00,
2013-10-03 19:47:00,68.6,65.5,29.74,WNW,293,0.0,0.0,90,0.00,OVC,OVC,0.64,0.0,WeatherDisplay:10.37,2013-10-04 00:47:00,
2013-10-03 19:52:00,68.2,65.2,29.74,West,270,0.0,0.0,90,0.00,OVC,OVC,0.64,0.0,WeatherDisplay:10.37,2013-10-04 00:52:00,
2013-10-03 19:57:00,68.1,65.1,29.74,West,270,0.0,0.0,90,0.00,OVC,OVC,0.64,0.0,WeatherDisplay:10.37,2013-10-04 00:57:00,
2013-10-03 20:02:00,67.8,64.8,29.74,West,270,0.0,0.0,90,0.00,OVC,OVC,0.64,0.0,WeatherDisplay:10.37,2013-10-04 01:02:00,
2013-10-03 20:07:00,67.7,64.7,29.75,West,270,0.0,0.0,90,0.00,OVC,OVC,0.64,0.0,WeatherDisplay:10.37,2013-10-04 01:07:00,
2013-10-03 20:12:00,67.6,64.6,29.74,West,270,0.0,0.0,90,0.00,OVC,OVC,0.64,0.0,WeatherDisplay:10.37,2013-10-04 01:12:00,
2013-10-03 20:17:00,67.5,64.5,29.74,West,270,0.0,0.0,90,0.00,OVC,OVC,0.64,0.0,WeatherDisplay:10.37,2013-10-04 01:17:00,
2013-10-03 20:22:00,67.5,64.5,29.74,West,270,0.0,0.0,90,0.00,OVC,OVC,0.64,0.0,WeatherDisplay:10.37,2013-10-04 01:22:00,
2013-10-03 20:27:00,67.4,64.4,29.74,West,270,0.0,0.0,90,0.00,OVC,OVC,0.64,0.0,WeatherDisplay:10.37,2013-10-04 01:27:00,
2013-10-03 20:32:00,67.3,64.3,29.74,West,270,0.0,0.0,90,0.00,OVC,OVC,0.64,0.0,WeatherDisplay:10.37,2013-10-04 01:32:00,
2013-10-03 20:37:00,67.1,64.1,29.74,West,270,0.0,0.0,90,0.00,OVC,OVC,0.64,0.0,WeatherDisplay:10.37,2013-10-04 01:37:00,
2013-10-03 20:47:00,67.0,64.6,29.75,West,270,0.0,0.0,92,0.00,OVC,,0.64,0.0,WeatherDisplay:10.37,2013-10-04 01:47:00,
2013-10-03 20:52:00,67.0,64.6,29.75,West,270,0.0,0.0,92,0.00,FEW,FEW,0.64,0.0,WeatherDisplay:10.37,2013-10-04 01:52:00,
2013-10-03 20:57:00,66.8,64.4,29.76,West,270,0.0,0.0,92,0.00,FEW,FEW,0.64,0.0,WeatherDisplay:10.37,2013-10-04 01:57:00,
2013-10-03 21:02:00,66.8,64.4,29.76,West,270,0.0,0.0,92,0.00,FEW,,0.64,0.0,WeatherDisplay:10.37,2013-10-04 02:02:00,
2013-10-03 21:07:00,67.0,64.6,29.75,West,270,0.0,0.0,92,0.00,FEW,,0.64,0.0,WeatherDisplay:10.37,2013-10-04 02:07:00,
2013-10-03 21:13:00,67.1,64.7,29.76,West,270,0.0,0.0,92,0.00,FEW,,0.64,0.0,WeatherDisplay:10.37,2013-10-04 02:13:00,
2013-10-03 21:18:00,67.1,64.4,29.75,West,270,0.0,0.0,91,0.00,FEW,,0.64,0.0,WeatherDisplay:10.37,2013-10-04 02:18:00,
2013-10-03 21:23:00,66.9,64.2,29.75,West,270,0.0,0.0,91,0.00,FEW,,0.64,0.0,WeatherDisplay:10.37,2013-10-04 02:23:00,
2013-10-03 21:28:00,66.9,64.2,29.75,West,270,0.0,0.0,91,0.00,FEW,,0.64,0.0,WeatherDisplay:10.37,2013-10-04 02:28:00,
2013-10-03 21:34:00,66.8,64.4,29.76,West,270,0.0,0.0,92,0.00,FEW,,0.64,0.0,WeatherDisplay:10.37,2013-10-04 02:34:00,
2013-10-03 21:39:00,67.2,64.2,29.76,West,270,0.0,0.0,90,0.00,FEW,,0.64,0.0,WeatherDisplay:10.37,2013-10-04 02:39:00,
2013-10-03 21:44:00,67.6,64.2,29.76,West,270,0.0,0.0,89,0.00,FEW,,0.64,0.0,WeatherDisplay:10.37,2013-10-04 02:44:00,
2013-10-03 21:49:00,67.7,64.3,29.75,West,270,0.0,0.0,89,0.00,FEW,,0.64,0.0,WeatherDisplay:10.37,2013-10-04 02:49:00,
2013-10-03 21:55:00,67.2,64.2,29.75,West,270,0.0,0.0,90,0.00,FEW,,0.64,0.0,WeatherDisplay:10.37,2013-10-04 02:55:00,
2013-10-03 22:00:00,67.0,64.3,29.76,West,270,0.0,0.0,91,0.00,FEW,,0.64,0.0,WeatherDisplay:10.37,2013-10-04 03:00:00,
2013-10-03 22:05:00,67.1,64.1,29.75,West,270,0.0,0.0,90,0.00,FEW,,0.64,0.0,WeatherDisplay:10.37,2013-10-04 03:05:00,
2013-10-03 22:10:00,67.0,64.0,29.75,West,270,0.0,0.0,90,0.00,FEW,,0.64,0.0,WeatherDisplay:10.37,2013-10-04 03:10:00,
2013-10-03 22:16:00,66.9,64.2,29.76,West,270,0.0,0.0,91,0.00,FEW,,0.64,0.0,WeatherDisplay:10.37,2013-10-04 03:16:00,
2013-10-03 22:21:00,67.0,64.0,29.76,West,270,0.0,0.0,90,0.00,FEW,,0.64,0.0,WeatherDisplay:10.37,2013-10-04 03:21:00,
2013-10-03 22:26:00,66.8,64.1,29.76,West,270,0.0,0.0,91,0.00,FEW,,0.64,0.0,WeatherDisplay:10.37,2013-10-04 03:26:00,
2013-10-03 22:31:00,66.6,63.9,29.76,West,270,0.0,0.0,91,0.00,FEW,,0.64,0.0,WeatherDisplay:10.37,2013-10-04 03:31:00,
2013-10-03 22:37:00,66.5,64.1,29.76,West,270,0.0,0.0,92,0.00,FEW,,0.64,0.0,WeatherDisplay:10.37,2013-10-04 03:37:00,
2013-10-03 22:42:00,66.5,64.1,29.76,West,270,0.0,0.0,92,0.00,FEW,FEW,0.64,0.0,WeatherDisplay:10.37,2013-10-04 03:42:00,
2013-10-03 22:47:00,66.6,64.2,29.76,West,270,0.0,0.0,92,0.00,FEW,,0.64,0.0,WeatherDisplay:10.37,2013-10-04 03:47:00,
2013-10-03 22:52:00,66.5,64.1,29.76,West,270,0.0,0.0,92,0.00,FEW,FEW,0.64,0.0,WeatherDisplay:10.37,2013-10-04 03:52:00,
2013-10-03 22:57:00,66.7,64.3,29.76,West,270,0.0,0.0,92,0.00,FEW,FEW,0.64,0.0,WeatherDisplay:10.37,2013-10-04 03:57:00,
2013-10-03 23:32:00,67.7,65.6,29.75,West,270,0.0,0.0,93,0.01,FEW,,0.65,0.0,WeatherDisplay:10.37,2013-10-04 04:32:00,
2013-10-03 23:33:00,67.7,65.6,29.75,West,270,0.0,0.0,93,0.01,FEW,,0.65,0.0,WeatherDisplay:10.37,2013-10-04 04:33:00,
2013-10-03 23:34:00,67.7,65.6,29.75,West,270,0.0,0.0,93,0.01,FEW,,0.65,0.0,WeatherDisplay:10.37,2013-10-04 04:34:00,
2013-10-03 23:35:00,67.7,65.6,29.75,SSE,166,0.0,0.0,93,0.01,FEW,,0.65,0.0,WeatherDisplay:10.37,2013-10-04 04:35:00,
2013-10-03 23:37:00,67.7,65.6,29.75,WSW,245,0.0,0.0,93,0.00,FEW,FEW,0.65,0.0,WeatherDisplay:10.37,2013-10-04 04:37:00,
2013-10-03 23:38:00,67.6,65.5,29.75,SSE,166,0.0,0.0,93,0.01,FEW,,0.65,0.0,WeatherDisplay:10.37,2013-10-04 04:38:00,
2013-10-03 23:43:00,67.8,65.7,29.74,SSE,166,0.0,0.0,93,0.01,FEW,,0.65,0.0,WeatherDisplay:10.37,2013-10-04 04:43:00,
2013-10-03 23:44:00,67.9,65.8,29.74,SSE,166,0.0,0.0,93,0.01,FEW,,0.65,0.0,WeatherDisplay:10.37,2013-10-04 04:44:00,
2013-10-03 23:47:00,68.0,65.9,29.74,North,11,0.2,0.0,93,0.01,FEW,,0.65,0.0,WeatherDisplay:10.37,2013-10-04 04:47:00,
2013-10-03 23:49:00,68.1,66.0,29.74,North,11,0.0,0.0,93,0.01,FEW,,0.65,0.0,WeatherDisplay:10.37,2013-10-04 04:49:00,
2013-10-03 23:51:00,68.1,66.0,29.74,North,11,0.0,0.0,93,0.01,FEW,,0.65,0.0,WeatherDisplay:10.37,2013-10-04 04:51:00,
2013-10-03 23:56:00,68.2,66.1,29.74,North,11,0.0,0.0,93,0.02,RA,,0.66,0.0,WeatherDisplay:10.37,2013-10-04 04:56:00,